Time;durP1;ratioP1;P1;durP2;ratioP2;P2;SDS_P1;SDS_P2;PMS_P1;PMS_P2;Temp;Humidity;BMP_temperature;BMP_pressure;BME280_temperature;BME280_humidity;BME280_pressure;Samples;Min_cycle;Max_cycle;Signal;HPM_P1;HPM_P2
2023/07/22 00:00:05;;;;;;;6.50;4.80;;;;;;;27.73;63.72;99278.50;5071699;28;20663;-70
2023/07/22 00:02:32;;;;;;;4.30;4.00;;;;;;;27.70;63.87;99281.84;5071808;28;20279;-69
2023/07/22 00:04:58;;;;;;;5.40;4.80;;;;;;;27.75;63.45;99293.44;5071835;28;20192;-69
2023/07/22 00:07:25;;;;;;;6.40;4.17;;;;;;;27.68;63.99;99279.44;5071644;28;20284;-70
2023/07/22 00:09:53;;;;;;;6.47;4.10;;;;;;;27.47;64.74;99269.34;5071820;28;20192;-69
2023/07/22 00:12:25;;;;;;;5.37;4.77;;;;;;;27.42;65.20;99281.22;5071772;28;20552;-70
2023/07/22 00:14:52;;;;;;;6.87;4.77;;;;;;;27.30;65.69;99274.69;5071868;28;20267;-69
2023/07/22 00:17:20;;;;;;;6.83;4.63;;;;;;;27.36;65.44;99263.34;5071717;28;20627;-69
2023/07/22 00:19:47;;;;;;;5.10;4.60;;;;;;;27.46;65.00;99274.00;5071768;28;20669;-69
2023/07/22 00:22:14;;;;;;;5.50;4.73;;;;;;;27.25;66.13;99275.63;5071326;28;20676;-69
2023/07/22 00:24:41;;;;;;;6.70;4.47;;;;;;;27.19;66.29;99281.50;5071774;28;20194;-69
2023/07/22 00:27:08;;;;;;;7.47;4.80;;;;;;;27.21;66.44;99292.91;5075398;28;20281;-70
2023/07/22 00:29:36;;;;;;;6.67;4.73;;;;;;;27.15;66.51;99283.22;5075589;28;20191;-69
2023/07/22 00:32:03;;;;;;;4.97;4.50;;;;;;;27.28;66.21;99287.84;5075434;28;20249;-69
2023/07/22 00:34:30;;;;;;;6.90;4.57;;;;;;;27.05;67.43;99284.25;5075075;28;20227;-69
2023/07/22 00:36:57;;;;;;;4.60;3.83;;;;;;;26.92;67.66;99282.38;5075011;28;20200;-70
2023/07/22 00:39:24;;;;;;;13.43;4.63;;;;;;;27.12;66.82;99294.75;5074983;28;20690;-69
2023/07/22 00:41:51;;;;;;;4.90;4.50;;;;;;;27.15;66.76;99291.41;5075233;28;20261;-70
2023/07/22 00:44:17;;;;;;;4.87;4.47;;;;;;;27.19;66.91;99295.13;5075157;28;20250;-70
2023/07/22 00:46:46;;;;;;;8.00;4.73;;;;;;;26.99;67.22;99290.16;5074786;28;20281;-69
2023/07/22 00:49:15;;;;;;;5.60;4.30;;;;;;;27.18;67.00;99288.84;5074723;28;20196;-69
2023/07/22 00:51:42;;;;;;;5.53;4.33;;;;;;;27.33;66.24;99296.72;5074747;28;20191;-69
2023/07/22 00:54:09;;;;;;;4.50;4.20;;;;;;;27.43;66.17;99301.09;5074959;28;20196;-70
2023/07/22 00:56:37;;;;;;;4.87;4.47;;;;;;;27.48;65.85;99304.50;5074978;28;20200;-69
2023/07/22 00:59:05;;;;;;;5.33;4.37;;;;;;;27.49;65.69;99314.34;5074855;28;20201;-71
2023/07/22 01:01:32;;;;;;;4.63;4.33;;;;;;;27.58;65.54;99317.09;5074852;28;20223;-70
2023/07/22 01:04:01;;;;;;;5.53;4.50;;;;;;;27.67;65.19;99317.97;5074782;28;20253;-69
2023/07/22 01:06:29;;;;;;;7.47;4.50;;;;;;;27.75;65.16;99317.19;5074369;28;20269;-69
2023/07/22 01:08:58;;;;;;;7.17;4.67;;;;;;;27.78;65.04;99325.59;5074798;28;20200;-69
2023/07/22 01:11:25;;;;;;;5.73;4.70;;;;;;;27.81;65.00;99318.69;5074464;28;20196;-69
2023/07/22 01:13:57;;;;;;;8.17;5.07;;;;;;;27.83;64.56;99316.47;5074828;28;20192;-70
2023/07/22 01:16:24;;;;;;;5.67;5.10;;;;;;;27.83;64.62;99321.94;5074405;28;20188;-70
2023/07/22 01:18:51;;;;;;;6.17;5.17;;;;;;;27.79;65.02;99323.66;5074252;28;20272;-68
2023/07/22 01:21:20;;;;;;;6.87;5.13;;;;;;;27.83;65.01;99321.94;5074275;28;20717;-69
2023/07/22 01:23:49;;;;;;;5.63;4.60;;;;;;;27.82;64.81;99314.88;5074567;28;20195;-69
2023/07/22 01:26:15;;;;;;;5.60;5.10;;;;;;;27.82;64.85;99317.59;5074444;28;20192;-70
2023/07/22 01:28:42;;;;;;;5.43;4.57;;;;;;;27.79;64.65;99324.47;5074566;28;20273;-69
2023/07/22 01:31:09;;;;;;;5.20;4.70;;;;;;;27.75;64.94;99325.41;5074479;28;20192;-70
2023/07/22 01:33:35;;;;;;;5.77;4.90;;;;;;;27.78;65.20;99335.69;5074404;28;20196;-70
2023/07/22 01:36:02;;;;;;;8.67;4.70;;;;;;;27.81;64.58;99321.44;5073966;28;20281;-70
2023/07/22 01:38:31;;;;;;;9.07;5.20;;;;;;;27.83;64.44;99327.41;5073845;28;20675;-70
2023/07/22 01:40:59;;;;;;;7.00;4.50;;;;;;;27.84;64.52;99329.81;5074243;28;20287;-69
2023/07/22 01:43:25;;;;;;;8.27;4.93;;;;;;;27.86;64.44;99324.06;5073772;28;20250;-70
2023/07/22 01:45:53;;;;;;;6.13;4.57;;;;;;;27.89;64.19;99331.63;5074376;28;20622;-70
2023/07/22 01:48:19;;;;;;;8.13;5.10;;;;;;;27.91;64.26;99338.38;5073583;28;20277;-70
2023/07/22 01:50:47;;;;;;;7.67;4.40;;;;;;;28.01;64.53;99340.06;5073694;28;20196;-70
2023/07/22 01:53:14;;;;;;;5.03;4.57;;;;;;;28.12;64.13;99335.91;5073997;28;20192;-70
2023/07/22 01:55:40;;;;;;;5.43;4.70;;;;;;;28.11;64.12;99335.13;5074138;28;20192;-70
2023/07/22 01:58:08;;;;;;;8.17;4.53;;;;;;;28.12;63.98;99333.19;5073797;28;20200;-70
2023/07/22 02:00:35;;;;;;;4.87;4.37;;;;;;;28.09;64.25;99331.09;5073520;28;20196;-70
2023/07/22 02:03:02;;;;;;;6.57;4.97;;;;;;;28.10;64.10;99332.72;5073322;28;20737;-70
2023/07/22 02:05:30;;;;;;;4.80;4.30;;;;;;;28.17;63.81;99328.38;5071719;28;20192;-70
2023/07/22 02:07:57;;;;;;;11.20;4.90;;;;;;;28.20;63.73;99344.16;5053523;28;20220;-70
2023/07/22 02:10:23;;;;;;;7.50;5.10;;;;;;;28.19;63.90;99348.03;5053167;28;20723;-70
2023/07/22 02:12:50;;;;;;;5.37;4.60;;;;;;;28.14;64.04;99333.69;5053612;28;20192;-70
2023/07/22 02:15:21;;;;;;;4.90;4.50;;;;;;;28.12;63.84;99338.66;5053462;28;20196;-70
2023/07/22 02:17:48;;;;;;;5.40;4.90;;;;;;;28.10;64.14;99330.75;5053289;28;20649;-70
2023/07/22 02:20:15;;;;;;;5.43;4.93;;;;;;;28.04;64.05;99333.94;5053403;28;20246;-70
2023/07/22 02:22:42;;;;;;;5.30;4.80;;;;;;;28.07;64.01;99338.78;5053696;28;20201;-70
2023/07/22 02:25:10;;;;;;;5.40;4.50;;;;;;;28.10;64.25;99349.88;5052975;28;20282;-70
2023/07/22 02:27:37;;;;;;;6.40;4.50;;;;;;;28.22;64.42;99349.31;5053271;28;20220;-69
2023/07/22 02:30:04;;;;;;;4.77;4.47;;;;;;;28.29;63.92;99349.66;5053302;28;20262;-69
2023/07/22 02:32:32;;;;;;;5.87;4.97;;;;;;;28.37;63.30;99352.44;5052954;28;20193;-69
2023/07/22 02:34:59;;;;;;;5.40;4.83;;;;;;;28.40;63.14;99353.72;5053134;28;20224;-70
2023/07/22 02:37:26;;;;;;;6.83;4.93;;;;;;;28.35;62.58;99346.50;5053156;28;20201;-71
2023/07/22 02:39:55;;;;;;;5.73;5.23;;;;;;;28.17;62.96;99344.00;5053091;28;20226;-71
2023/07/22 02:42:21;;;;;;;9.47;4.77;;;;;;;28.07;63.81;99338.78;5053008;28;20250;-71
2023/07/22 02:44:49;;;;;;;8.53;5.23;;;;;;;28.02;64.27;99336.19;5052609;28;20651;-71
2023/07/22 02:47:16;;;;;;;5.13;4.70;;;;;;;27.99;64.13;99331.34;5052281;28;20224;-69
2023/07/22 02:49:44;;;;;;;5.60;5.10;;;;;;;28.01;64.62;99329.13;5052733;28;20224;-69
2023/07/22 02:52:11;;;;;;;5.20;4.90;;;;;;;28.06;64.45;99337.19;5052548;28;20197;-69
2023/07/22 02:54:41;;;;;;;7.33;5.80;;;;;;;28.13;64.11;99332.88;5052456;28;20193;-70
2023/07/22 02:57:07;;;;;;;6.57;4.93;;;;;;;28.14;64.37;99337.19;5052476;28;20254;-71
2023/07/22 02:59:34;;;;;;;5.83;5.43;;;;;;;28.13;63.95;99324.69;5052335;28;20734;-71
2023/07/22 03:02:01;;;;;;;5.33;4.93;;;;;;;28.11;64.11;99339.78;5052396;28;20667;-71
2023/07/22 03:04:27;;;;;;;10.43;6.90;;;;;;;28.07;63.09;99333.31;5052512;28;20242;-71
2023/07/22 03:06:55;;;;;;;8.00;6.50;;;;;;;27.98;63.02;99346.91;5065776;28;20200;-71
2023/07/22 03:09:22;;;;;;;7.87;6.93;;;;;;;27.98;62.63;99341.47;5072451;28;20192;-70
2023/07/22 03:11:49;;;;;;;7.30;5.87;;;;;;;28.05;63.31;99338.31;5072615;28;20191;-70
2023/07/22 03:14:16;;;;;;;10.13;6.97;;;;;;;28.14;62.06;99328.22;5072310;28;20231;-70
2023/07/22 03:16:42;;;;;;;7.40;6.70;;;;;;;28.13;61.74;99334.81;5072555;28;20196;-70
2023/07/22 03:19:10;;;;;;;11.33;7.90;;;;;;;28.03;61.77;99337.81;5071970;28;20200;-71
2023/07/22 03:21:36;;;;;;;8.23;6.90;;;;;;;27.93;62.03;99322.47;5072071;28;20226;-70
2023/07/22 03:24:05;;;;;;;8.13;7.40;;;;;;;27.90;62.12;99330.50;5072237;28;20198;-70
2023/07/22 03:26:32;;;;;;;8.07;5.97;;;;;;;27.91;62.54;99332.94;5072402;28;20203;-70
2023/07/22 03:28:59;;;;;;;9.80;6.63;;;;;;;27.93;62.30;99332.63;5071861;28;20703;-70
2023/07/22 03:31:25;;;;;;;7.87;6.97;;;;;;;27.97;62.58;99334.38;5072217;28;20257;-70
2023/07/22 03:33:52;;;;;;;14.43;6.87;;;;;;;27.99;62.87;99336.81;5071985;28;20261;-69
2023/07/22 03:36:19;;;;;;;10.77;7.73;;;;;;;28.01;62.59;99342.78;5071840;28;20732;-71
2023/07/22 03:38:46;;;;;;;9.83;6.70;;;;;;;27.92;63.19;99344.63;5072194;28;20245;-69
2023/07/22 03:41:14;;;;;;;10.00;6.63;;;;;;;27.92;63.15;99353.66;5071632;28;20195;-69
2023/07/22 03:43:41;;;;;;;9.13;6.73;;;;;;;28.09;62.63;99352.94;5071889;28;20192;-70
2023/07/22 03:46:08;;;;;;;7.87;6.87;;;;;;;28.20;62.27;99344.16;5071556;28;20726;-71
2023/07/22 03:48:35;;;;;;;12.70;6.87;;;;;;;28.33;61.71;99353.38;5071948;28;20284;-70
2023/07/22 03:51:02;;;;;;;10.23;7.07;;;;;;;28.47;61.09;99357.63;5071768;28;20279;-70
2023/07/22 03:53:28;;;;;;;10.77;7.47;;;;;;;28.57;61.02;99348.34;5071928;28;20253;-69
2023/07/22 03:55:55;;;;;;;12.67;7.57;;;;;;;28.61;60.89;99352.06;5071525;28;20196;-69
2023/07/22 03:58:23;;;;;;;10.33;6.87;;;;;;;28.75;60.33;99355.50;5071782;28;20612;-70
2023/07/22 04:00:50;;;;;;;15.30;7.47;;;;;;;28.82;60.58;99356.63;5076041;28;20200;-71
2023/07/22 04:03:17;;;;;;;28.20;7.57;;;;;;;28.91;60.55;99351.97;5075949;28;20192;-70
2023/07/22 04:05:43;;;;;;;9.87;7.00;;;;;;;29.03;60.40;99357.66;5071528;28;20196;-70
2023/07/22 04:08:10;;;;;;;10.97;6.67;;;;;;;29.20;59.74;99370.56;5055535;28;20650;-71
2023/07/22 04:10:37;;;;;;;8.57;6.03;;;;;;;29.45;59.06;99364.28;5056033;28;20197;-70
2023/07/22 04:13:04;;;;;;;9.93;6.20;;;;;;;29.91;57.65;99372.66;5055711;28;20200;-70
2023/07/22 04:15:32;;;;;;;11.47;6.27;;;;;;;30.56;55.59;99378.59;5055282;28;20201;-70
2023/07/22 04:17:59;;;;;;;15.07;6.57;;;;;;;31.23;53.79;99373.09;5055359;28;20223;-70
2023/07/22 04:20:25;;;;;;;11.97;6.30;;;;;;;31.83;52.00;99373.41;5055165;28;20663;-70
2023/07/22 04:22:52;;;;;;;11.60;5.63;;;;;;;32.31;50.25;99379.88;5055439;28;20193;-70
2023/07/22 04:25:20;;;;;;;12.30;6.03;;;;;;;32.82;48.83;99384.72;5055164;28;20192;-69
2023/07/22 04:27:46;;;;;;;10.20;5.97;;;;;;;33.45;46.21;99390.63;5055043;28;20582;-68
2023/07/22 04:30:19;;;;;;;7.97;5.67;;;;;;;33.94;44.86;99389.31;5055362;28;20193;-69
2023/07/22 04:32:48;;;;;;;5.80;5.30;;;;;;;34.34;43.51;99385.34;5055419;28;20668;-70
2023/07/22 04:35:16;;;;;;;7.18;5.43;;;;;;;34.96;41.65;99393.59;5055203;28;20688;-71
2023/07/22 04:37:43;;;;;;;7.50;4.90;;;;;;;35.25;41.43;99397.78;5055269;28;20196;-71
2023/07/22 04:40:14;;;;;;;9.20;5.10;;;;;;;35.61;40.35;99400.19;5054812;28;20761;-70
2023/07/22 04:42:40;;;;;;;7.57;5.05;;;;;;;36.00;39.74;99399.84;5055236;28;20189;-71
2023/07/22 04:45:09;;;;;;;9.32;5.07;;;;;;;36.28;39.16;99402.38;5055033;28;20192;-71
2023/07/22 04:47:36;;;;;;;9.50;5.47;;;;;;;36.66;37.64;99396.72;5054718;28;20208;-69
2023/07/22 04:50:06;;;;;;;9.65;5.40;;;;;;;37.11;36.39;99403.00;5055034;28;20618;-69
2023/07/22 04:52:33;;;;;;;8.85;5.43;;;;;;;37.26;36.32;99404.03;5054975;28;20220;-70
2023/07/22 04:54:59;;;;;;;10.18;6.22;;;;;;;37.45;35.87;99405.84;5054624;28;20193;-70
2023/07/22 04:57:26;;;;;;;15.93;8.13;;;;;;;37.51;35.67;99412.69;5054608;28;20250;-70
2023/07/22 04:59:53;;;;;;;25.90;7.28;;;;;;;37.40;35.91;99407.00;5065815;28;20572;-69
2023/07/22 05:02:19;;;;;;;7.63;6.60;;;;;;;37.69;35.52;99417.31;5074750;28;20188;-69
2023/07/22 05:04:46;;;;;;;9.05;6.68;;;;;;;37.82;35.19;99417.84;5074477;28;20257;-69
2023/07/22 05:07:15;;;;;;;9.00;7.40;;;;;;;38.33;33.81;99414.09;5074610;28;20196;-70
2023/07/22 05:09:42;;;;;;;9.15;7.18;;;;;;;38.69;33.60;99407.72;5074380;28;20254;-68
2023/07/22 05:12:09;;;;;;;13.43;7.38;;;;;;;38.56;33.71;99400.06;5073275;28;20640;-69
2023/07/22 05:14:35;;;;;;;12.02;6.28;;;;;;;38.87;32.84;99400.31;5074293;28;20718;-69
2023/07/22 05:17:02;;;;;;;6.32;5.40;;;;;;;39.22;32.04;99400.56;5074537;28;20265;-69
2023/07/22 05:19:29;;;;;;;9.80;5.75;;;;;;;39.06;32.49;99402.09;5074551;28;20233;-69
2023/07/22 05:21:55;;;;;;;10.45;5.82;;;;;;;38.93;32.14;99403.56;5074120;28;20195;-69
2023/07/22 05:24:23;;;;;;;5.72;5.32;;;;;;;38.98;32.39;99417.13;5074539;28;20188;-69
2023/07/22 05:26:50;;;;;;;6.95;5.97;;;;;;;39.15;31.86;99417.22;5074534;28;20191;-68
2023/07/22 05:29:17;;;;;;;10.57;6.28;;;;;;;39.58;31.25;99413.53;5074575;28;20219;-69
2023/07/22 05:31:44;;;;;;;7.85;5.28;;;;;;;39.51;31.07;99404.34;5074276;28;20192;-69
2023/07/22 05:34:11;;;;;;;8.52;5.72;;;;;;;39.42;31.22;99415.81;5073905;28;20286;-69
2023/07/22 05:36:37;;;;;;;6.22;5.65;;;;;;;39.22;31.36;99410.88;5073968;28;20644;-68
2023/07/22 05:39:04;;;;;;;7.70;5.80;;;;;;;39.45;30.86;99408.69;5074187;28;20246;-70
2023/07/22 05:41:33;;;;;;;6.18;5.60;;;;;;;39.75;30.57;99418.38;5074235;28;20196;-68
2023/07/22 05:44:00;;;;;;;7.63;5.15;;;;;;;40.24;29.35;99417.75;5074013;28;20188;-69
2023/07/22 05:46:27;;;;;;;9.15;5.43;;;;;;;40.36;29.40;99418.19;5073643;28;20199;-68
2023/07/22 05:48:53;;;;;;;7.22;5.97;;;;;;;40.14;29.85;99410.16;5073878;28;20216;-68
2023/07/22 05:51:20;;;;;;;8.73;5.95;;;;;;;39.78;30.37;99403.69;5073783;28;20203;-68
2023/07/22 05:53:47;;;;;;;6.57;6.03;;;;;;;39.83;29.99;99396.94;5073957;28;20253;-68
2023/07/22 05:56:14;;;;;;;5.68;5.28;;;;;;;40.09;30.08;99405.78;5073765;28;20192;-69
2023/07/22 05:58:42;;;;;;;6.45;5.85;;;;;;;40.05;29.89;99404.97;5073979;28;20192;-68
2023/07/22 06:01:09;;;;;;;6.60;5.57;;;;;;;39.55;30.67;99402.38;5073392;28;20659;-68
2023/07/22 06:03:35;;;;;;;8.80;5.78;;;;;;;39.43;30.83;99395.16;5073688;28;20287;-68
2023/07/22 06:06:02;;;;;;;8.75;5.90;;;;;;;39.36;31.09;99402.69;5073727;28;20196;-68
2023/07/22 06:08:29;;;;;;;17.45;6.65;;;;;;;38.86;31.60;99398.72;5073567;28;20223;-68
2023/07/22 06:10:56;;;;;;;7.68;6.75;;;;;;;38.78;31.74;99397.06;5073625;28;20244;-68
2023/07/22 06:13:23;;;;;;;11.93;6.57;;;;;;;38.44;32.47;99390.00;5073521;28;20245;-68
2023/07/22 06:15:51;;;;;;;6.80;6.10;;;;;;;38.61;32.16;99391.38;5073531;28;20257;-68
2023/07/22 06:18:18;;;;;;;10.25;6.18;;;;;;;38.30;32.94;99392.66;5073087;28;20225;-68
2023/07/22 06:20:45;;;;;;;7.80;6.32;;;;;;;38.32;33.43;99389.47;5073486;28;20548;-68
2023/07/22 06:23:11;;;;;;;9.68;6.05;;;;;;;38.38;32.71;99377.66;5072855;28;20748;-70
2023/07/22 06:25:38;;;;;;;9.38;6.80;;;;;;;38.35;32.77;99386.75;5073034;28;20195;-68
2023/07/22 06:28:05;;;;;;;13.80;6.00;;;;;;;38.37;32.77;99389.16;5073134;28;20213;-68
2023/07/22 06:30:32;;;;;;;6.80;6.30;;;;;;;38.34;32.28;99390.72;5072953;28;20249;-68
2023/07/22 06:33:00;;;;;;;11.88;5.93;;;;;;;38.22;33.06;99388.22;5072817;28;20222;-69
2023/07/22 06:35:27;;;;;;;7.55;6.78;;;;;;;37.87;32.94;99395.31;5072790;28;20220;-69
2023/07/22 06:37:53;;;;;;;7.05;5.38;;;;;;;37.65;33.42;99394.28;5072934;28;20254;-69
2023/07/22 06:40:20;;;;;;;6.53;5.90;;;;;;;37.71;33.75;99394.75;5072961;28;20249;-69
2023/07/22 06:42:47;;;;;;;13.02;5.95;;;;;;;37.97;33.61;99389.91;5073133;28;20253;-69
2023/07/22 06:45:13;;;;;;;12.02;6.28;;;;;;;38.23;33.07;99389.81;5072670;28;20741;-69
2023/07/22 06:47:40;;;;;;;6.45;5.82;;;;;;;38.26;33.31;99393.81;5073106;28;20249;-69
2023/07/22 06:50:09;;;;;;;53.83;9.02;;;;;;;37.57;34.06;99395.34;5072752;28;20220;-69
2023/07/22 06:52:35;;;;;;;7.68;6.97;;;;;;;37.23;34.54;99388.13;5072360;28;20567;-68
2023/07/22 06:55:02;;;;;;;8.45;6.03;;;;;;;37.09;35.06;99388.72;5072765;28;20253;-69
2023/07/22 06:57:30;;;;;;;7.55;6.25;;;;;;;37.08;34.91;99397.41;5072230;28;20192;-69
2023/07/22 06:59:57;;;;;;;8.93;6.70;;;;;;;36.75;35.66;99397.28;5072826;28;20191;-69
2023/07/22 07:02:24;;;;;;;6.68;5.55;;;;;;;36.89;36.18;99400.28;5072285;28;20200;-69
2023/07/22 07:04:51;;;;;;;6.53;5.72;;;;;;;37.19;35.63;99396.41;5072581;28;20196;-69
2023/07/22 07:07:19;;;;;;;7.07;6.20;;;;;;;37.30;34.58;99398.53;5071949;28;20195;-68
2023/07/22 07:09:46;;;;;;;6.57;5.85;;;;;;;36.87;34.98;99386.78;5072454;28;20255;-69
2023/07/22 07:12:12;;;;;;;7.18;6.38;;;;;;;35.97;37.54;99381.19;5072348;28;20291;-70
2023/07/22 07:14:39;;;;;;;8.98;6.28;;;;;;;36.19;36.90;99372.16;5072144;28;20202;-69
2023/07/22 07:17:06;;;;;;;10.50;6.65;;;;;;;36.54;36.83;99377.53;5072041;28;20627;-70
2023/07/22 07:19:33;;;;;;;12.95;6.35;;;;;;;36.80;35.90;99377.56;5072366;28;20257;-69
2023/07/22 07:21:59;;;;;;;10.57;6.53;;;;;;;37.07;36.23;99379.19;5071866;28;20249;-68
2023/07/22 07:24:28;;;;;;;10.05;6.93;;;;;;;37.45;35.01;99375.38;5071876;28;20192;-68
2023/07/22 07:26:54;;;;;;;9.13;6.32;;;;;;;37.77;34.48;99385.72;5072072;28;20191;-68
2023/07/22 07:29:21;;;;;;;9.30;6.50;;;;;;;37.98;33.86;99385.97;5071932;28;20235;-68
2023/07/22 07:31:48;;;;;;;10.75;6.50;;;;;;;38.18;33.57;99390.16;5072335;28;20192;-68
2023/07/22 07:34:15;;;;;;;7.28;6.47;;;;;;;38.36;33.00;99390.31;5071190;28;20227;-68
2023/07/22 07:36:41;;;;;;;7.43;6.13;;;;;;;38.52;32.83;99388.94;5072029;28;20616;-68
2023/07/22 07:39:08;;;;;;;6.35;5.72;;;;;;;38.69;32.42;99382.72;5072025;28;20257;-68
2023/07/22 07:41:37;;;;;;;6.82;5.90;;;;;;;38.71;32.70;99374.81;5071591;28;20278;-68
2023/07/22 07:44:04;;;;;;;7.30;6.13;;;;;;;38.60;32.85;99379.47;5071817;28;20192;-68
2023/07/22 07:46:31;;;;;;;10.63;6.28;;;;;;;38.36;33.48;99368.09;5071639;28;20240;-68
2023/07/22 07:49:01;;;;;;;13.40;6.85;;;;;;;38.44;33.07;99378.91;5071428;28;20695;-68
2023/07/22 07:51:29;;;;;;;6.78;6.30;;;;;;;38.44;32.72;99384.47;5071628;28;20282;-68
2023/07/22 07:53:58;;;;;;;7.45;6.75;;;;;;;37.98;33.28;99385.97;5071487;28;20663;-68
2023/07/22 07:56:25;;;;;;;7.25;6.25;;;;;;;38.02;33.63;99389.56;5071892;28;20200;-68
2023/07/22 07:58:54;;;;;;;8.93;6.85;;;;;;;37.97;33.81;99394.66;5071460;28;20199;-68
2023/07/22 08:01:21;;;;;;;8.77;7.47;;;;;;;37.76;34.21;99399.97;5071419;28;20655;-68
2023/07/22 08:03:48;;;;;;;8.98;6.70;;;;;;;37.89;33.80;99395.75;5071833;28;20202;-68
2023/07/22 08:06:14;;;;;;;7.00;6.47;;;;;;;38.18;33.36;99390.16;5071346;28;20192;-69
2023/07/22 08:08:41;;;;;;;9.90;6.82;;;;;;;38.10;33.92;99394.03;5071673;28;20236;-69
2023/07/22 08:11:09;;;;;;;7.07;6.57;;;;;;;38.15;33.87;99390.91;5071513;28;20679;-69
2023/07/22 08:13:37;;;;;;;17.23;6.80;;;;;;;38.19;33.91;99388.16;5071287;28;20200;-68
2023/07/22 08:16:07;;;;;;;6.97;6.43;;;;;;;38.38;33.20;99390.75;5071723;28;20196;-68
2023/07/22 08:18:35;;;;;;;5.88;5.40;;;;;;;38.50;32.96;99377.38;5071446;28;20188;-68
2023/07/22 08:21:02;;;;;;;7.25;6.72;;;;;;;38.83;32.53;99382.84;5071248;28;20574;-68
2023/07/22 08:23:29;;;;;;;15.75;6.47;;;;;;;39.03;32.06;99381.38;5071816;28;20192;-68
2023/07/22 08:25:56;;;;;;;7.35;6.60;;;;;;;39.11;32.37;99374.69;5071567;28;20196;-68
2023/07/22 08:28:22;;;;;;;8.60;6.68;;;;;;;39.21;31.87;99367.59;5071541;28;20188;-68
2023/07/22 08:30:49;;;;;;;9.63;6.70;;;;;;;39.28;31.75;99376.00;5071250;28;20219;-68
2023/07/22 08:33:18;;;;;;;7.40;6.85;;;;;;;39.37;31.28;99368.13;5071190;28;20684;-68
2023/07/22 08:35:45;;;;;;;7.20;6.50;;;;;;;39.43;31.19;99364.56;5071577;28;20276;-68
2023/07/22 08:38:11;;;;;;;7.50;6.38;;;;;;;39.57;31.34;99361.88;5071407;28;20195;-69
2023/07/22 08:40:39;;;;;;;8.63;6.32;;;;;;;39.62;31.08;99357.88;5071174;28;20626;-68
2023/07/22 08:43:08;;;;;;;6.97;6.53;;;;;;;39.69;30.69;99357.94;5071431;28;20200;-72
2023/07/22 08:45:36;;;;;;;8.57;7.38;;;;;;;39.72;30.72;99357.94;5071680;28;20200;-68
2023/07/22 08:48:07;;;;;;;6.78;6.20;;;;;;;39.56;31.12;99353.91;5074895;28;20204;-68
2023/07/22 08:50:42;;;;;;;6.85;6.40;;;;;;;39.18;31.51;99355.28;5075352;28;20273;-68
2023/07/22 08:53:09;;;;;;;6.93;6.32;;;;;;;39.11;32.10;99343.34;5075236;28;20241;-69
2023/07/22 08:55:36;;;;;;;7.20;6.63;;;;;;;39.14;31.94;99346.13;5074925;28;20257;-69
2023/07/22 08:58:04;;;;;;;6.65;5.78;;;;;;;39.21;31.60;99346.19;5075001;28;20249;-68
2023/07/22 09:00:32;;;;;;;9.45;6.40;;;;;;;39.38;30.82;99341.91;5074472;28;20200;-68
2023/07/22 09:03:00;;;;;;;7.78;6.78;;;;;;;39.45;31.03;99347.50;5075207;28;20196;-68
2023/07/22 09:05:27;;;;;;;7.25;6.85;;;;;;;39.47;31.01;99334.78;5074404;28;20188;-68
2023/07/22 09:07:56;;;;;;;9.65;7.07;;;;;;;39.73;30.44;99337.25;5054557;28;20239;-68
2023/07/22 09:10:25;;;;;;;7.47;6.82;;;;;;;39.84;30.25;99335.34;5054152;28;20220;-69
2023/07/22 09:12:52;;;;;;;9.05;7.35;;;;;;;39.11;31.51;99333.00;5054314;28;20193;-67
2023/07/22 09:15:19;;;;;;;7.05;6.47;;;;;;;38.77;32.15;99341.88;5054288;28;20734;-67
2023/07/22 09:17:47;;;;;;;11.93;6.93;;;;;;;38.98;31.31;99337.28;5054250;28;20652;-68
2023/07/22 09:20:14;;;;;;;8.18;7.13;;;;;;;38.99;31.39;99344.44;5054570;28;20196;-68
2023/07/22 09:22:44;;;;;;;7.63;6.95;;;;;;;39.07;31.22;99332.19;5053987;28;20626;-68
2023/07/22 09:25:20;;;;;;;11.35;7.10;;;;;;;39.18;31.18;99333.03;5054387;28;20330;-68
2023/07/22 09:27:47;;;;;;;9.23;7.05;;;;;;;39.34;30.85;99325.22;5053887;28;20180;-69
2023/07/22 09:30:25;;;;;;;9.43;7.72;;;;;;;39.43;30.63;99310.97;5053789;28;20273;-68
2023/07/22 09:32:53;;;;;;;7.70;6.93;;;;;;;39.18;31.86;99310.00;5054372;28;20283;-68
2023/07/22 09:35:20;;;;;;;8.40;7.60;;;;;;;39.07;31.28;99315.50;5054237;28;20224;-68
2023/07/22 09:37:48;;;;;;;11.23;6.70;;;;;;;39.21;31.17;99310.03;5054509;28;20201;-68
2023/07/22 09:40:17;;;;;;;19.30;7.10;;;;;;;39.52;31.03;99309.38;5053765;28;20200;-68
2023/07/22 09:42:49;;;;;;;14.68;7.18;;;;;;;39.63;30.32;99310.22;5053715;28;20201;-68
2023/07/22 09:45:17;;;;;;;7.90;7.25;;;;;;;39.62;30.68;99303.06;5053969;28;20185;-68
2023/07/22 09:47:45;;;;;;;7.97;7.18;;;;;;;39.75;30.59;99295.94;5053746;28;20669;-68
2023/07/22 09:50:13;;;;;;;7.55;6.80;;;;;;;39.83;29.88;99297.56;5053576;28;20629;-68
2023/07/22 09:52:46;;;;;;;7.95;7.05;;;;;;;39.92;30.18;99292.41;5053707;28;20205;-68
2023/07/22 09:55:13;;;;;;;11.20;7.35;;;;;;;39.67;30.34;99285.97;5053953;28;20280;-68
2023/07/22 09:57:45;;;;;;;9.13;6.60;;;;;;;39.19;31.41;99281.81;5053656;28;20196;-67
2023/07/22 10:00:14;;;;;;;8.05;7.18;;;;;;;39.24;31.34;99273.13;5053380;28;20196;-69
2023/07/22 10:02:43;;;;;;;7.93;7.10;;;;;;;39.43;31.12;99267.25;5053799;28;20196;-68
2023/07/22 10:05:14;;;;;;;9.10;7.40;;;;;;;39.58;30.62;99268.88;5053265;28;20197;-68
2023/07/22 10:07:46;;;;;;;10.77;7.63;;;;;;;39.58;30.60;99268.88;5072002;28;20184;-68
2023/07/22 10:10:15;;;;;;;10.82;7.78;;;;;;;39.79;30.45;99266.16;5073216;28;20266;-68
2023/07/22 10:12:44;;;;;;;10.77;8.05;;;;;;;38.97;31.00;99259.88;5073039;28;20188;-68
2023/07/22 10:15:13;;;;;;;8.77;7.82;;;;;;;38.00;32.62;99252.41;5073428;28;20192;-68
2023/07/22 10:17:41;;;;;;;10.38;7.82;;;;;;;38.15;32.20;99249.38;5073747;28;20188;-68
2023/07/22 10:20:12;;;;;;;11.43;8.50;;;;;;;38.24;32.34;99251.81;5073408;28;20195;-68
2023/07/22 10:22:39;;;;;;;10.73;7.65;;;;;;;38.13;33.25;99253.72;5073408;28;20180;-68
2023/07/22 10:25:07;;;;;;;12.23;8.32;;;;;;;38.20;32.92;99257.34;5073300;28;20242;-68
2023/07/22 10:27:35;;;;;;;11.65;7.55;;;;;;;38.25;32.85;99247.88;5072974;28;20236;-68
2023/07/22 10:30:04;;;;;;;8.48;7.60;;;;;;;38.55;32.65;99243.75;5072694;28;20220;-68
2023/07/22 10:32:36;;;;;;;9.00;6.97;;;;;;;38.65;32.03;99239.47;5073126;28;20247;-68
2023/07/22 10:35:04;;;;;;;12.40;7.90;;;;;;;38.80;31.68;99244.69;5072795;28;20675;-67
2023/07/22 10:37:32;;;;;;;9.63;7.60;;;;;;;39.00;31.23;99237.69;5073097;28;20192;-67
2023/07/22 10:40:03;;;;;;;12.07;7.35;;;;;;;39.16;31.18;99227.03;5072892;28;20192;-67
2023/07/22 10:42:33;;;;;;;10.65;7.88;;;;;;;39.38;31.33;99231.47;5072960;28;20278;-67
2023/07/22 10:45:03;;;;;;;14.23;7.80;;;;;;;39.62;30.63;99236.31;5072604;28;20275;-67
2023/07/22 10:47:35;;;;;;;13.65;8.05;;;;;;;39.77;29.86;99217.69;5072582;28;20275;-67
2023/07/22 10:50:09;;;;;;;10.38;8.05;;;;;;;39.51;30.52;99224.34;5072679;28;20233;-67
2023/07/22 10:52:45;;;;;;;9.18;6.95;;;;;;;39.49;30.34;99240.66;5072581;28;20195;-67
2023/07/22 10:55:20;;;;;;;13.25;7.65;;;;;;;39.25;30.64;99221.88;5072596;28;20183;-68
2023/07/22 10:57:52;;;;;;;9.32;7.45;;;;;;;39.10;30.84;99214.69;5072460;28;20633;-67
2023/07/22 11:00:22;;;;;;;8.90;8.15;;;;;;;38.78;31.24;99208.16;5072356;28;20196;-68
2023/07/22 11:03:04;;;;;;;7.18;6.53;;;;;;;38.93;31.12;99211.81;5072901;28;20646;-68
2023/07/22 11:05:48;;;;;;;12.15;8.25;;;;;;;38.68;31.89;99194.22;5072215;28;20234;-68
2023/07/22 11:08:15;;;;;;;10.20;7.93;;;;;;;38.96;31.50;99186.84;5072131;28;20184;-68
2023/07/22 11:10:54;;;;;;;7.88;7.18;;;;;;;39.18;31.09;99196.84;5071968;28;20300;-68
2023/07/22 11:13:28;;;;;;;14.68;7.28;;;;;;;39.32;30.92;99216.31;5072206;28;20188;-68
2023/07/22 11:15:59;;;;;;;12.40;7.60;;;;;;;39.37;30.64;99192.94;5072429;28;20190;-68
2023/07/22 11:18:37;;;;;;;9.88;6.40;;;;;;;39.26;30.77;99189.31;5072398;28;20184;-68
2023/07/22 11:21:07;;;;;;;7.28;6.68;;;;;;;39.18;30.33;99188.50;5072319;28;20192;-67
2023/07/22 11:23:34;;;;;;;8.55;7.70;;;;;;;39.18;31.12;99199.63;5072427;28;20253;-68
2023/07/22 11:26:01;;;;;;;10.60;7.25;;;;;;;39.16;30.90;99190.09;5071876;28;20206;-68
2023/07/22 11:28:28;;;;;;;9.30;7.05;;;;;;;39.36;30.51;99169.88;5072195;28;20196;-68
2023/07/22 11:30:56;;;;;;;11.65;7.45;;;;;;;39.46;29.88;99176.66;5072050;28;20220;-68
2023/07/22 11:33:23;;;;;;;11.93;7.22;;;;;;;39.54;29.52;99176.28;5072242;28;20195;-68